createdAt,value
2022-11-16T00:01:43.453Z,46.47
2022-11-16T00:04:12.160Z,48.88
2022-11-16T00:06:40.228Z,49.25
2022-11-16T00:09:22.987Z,48.17
2022-11-16T00:11:53.053Z,43.58
2022-11-16T00:14:21.482Z,46.28
2022-11-16T00:16:48.422Z,60.45
2022-11-16T00:19:15.373Z,61.85
2022-11-16T00:21:42.488Z,59.67
2022-11-16T00:24:13.103Z,54.35
2022-11-16T00:26:40.105Z,53.15
2022-11-16T00:29:07.293Z,59.90
2022-11-16T00:31:34.345Z,57.03
2022-11-16T00:34:01.368Z,75.63
2022-11-16T00:36:28.682Z,69.05
2022-11-16T00:38:55.787Z,69.10
2022-11-16T00:41:22.816Z,70.93
2022-11-16T00:43:49.797Z,74.55
2022-11-16T00:46:16.917Z,68.25
2022-11-16T00:48:44.161Z,62.28
2022-11-16T00:51:11.201Z,55.25
2022-11-16T00:53:38.277Z,50.72
2022-11-16T00:56:05.710Z,43.20
2022-11-16T00:58:38.772Z,48.65
2022-11-16T01:01:09.827Z,51.38
2022-11-16T01:03:37.272Z,47.83
2022-11-16T01:06:06.651Z,58.75
2022-11-16T01:08:35.521Z,50.25
2022-11-16T01:11:21.605Z,54.90
2022-11-16T01:13:49.058Z,52.70
2022-11-16T01:16:17.953Z,51.97
2022-11-16T01:18:50.310Z,64.80
2022-11-16T01:21:17.543Z,55.00
2022-11-16T01:23:44.607Z,73.18
2022-11-16T01:26:12.548Z,66.43
2022-11-16T01:28:41.560Z,51.58
2022-11-16T01:31:12.405Z,55.92
2022-11-16T01:33:40.610Z,59.87
2022-11-16T01:36:15.424Z,65.82
2022-11-16T01:38:45.773Z,81.13
2022-11-16T01:41:17.712Z,79.53
2022-11-16T01:44:54.392Z,74.68
2022-11-16T01:47:21.748Z,77.32
2022-11-16T01:49:53.507Z,80.47
2022-11-16T01:52:32.959Z,71.13
2022-11-16T01:55:01.639Z,75.47
2022-11-16T01:57:40.119Z,73.63
2022-11-16T02:00:11.784Z,70.88
2022-11-16T02:02:47.789Z,96.97
2022-11-16T02:06:02.145Z,116.35
2022-11-16T02:12:39.946Z,101.72
2022-11-16T02:15:38.781Z,98.82
2022-11-16T02:18:38.852Z,104.90
2022-11-16T02:21:32.762Z,102.35
2022-11-16T02:24:26.076Z,98.70
2022-11-16T02:27:28.700Z,110.72
2022-11-16T02:29:57.006Z,104.65
2022-11-16T02:33:01.911Z,116.63
2022-11-16T02:35:38.614Z,106.45
2022-11-16T02:38:15.491Z,113.03
2022-11-16T02:40:48.295Z,119.57
2022-11-16T02:43:26.763Z,102.47
2022-11-16T02:45:59.344Z,100.60
2022-11-16T02:48:37.192Z,105.32
2022-11-16T02:51:06.836Z,108.05
2022-11-16T02:53:59.674Z,110.88
2022-11-16T02:56:27.683Z,117.75
2022-11-16T02:58:56.353Z,117.15
2022-11-16T03:01:36.953Z,113.85
2022-11-16T03:04:14.687Z,97.45
2022-11-16T03:06:46.090Z,113.15
2022-11-16T03:09:28.073Z,114.05
2022-11-16T03:11:59.726Z,113.57
2022-11-16T03:14:42.308Z,120.07
2022-11-16T03:19:59.916Z,116.10
2022-11-16T03:22:35.477Z,103.93
2022-11-16T03:25:04.969Z,110.82
2022-11-16T03:27:47.396Z,111.55
2022-11-16T03:30:23.543Z,126.93
2022-11-16T03:33:22.732Z,120.00
2022-11-16T03:36:28.522Z,130.30
2022-11-16T03:39:01.440Z,126.43
2022-11-16T03:41:31.603Z,113.13
2022-11-16T03:43:59.885Z,125.32
2022-11-16T03:46:27.053Z,137.32
2022-11-16T03:48:59.138Z,122.95
2022-11-16T03:51:29.942Z,104.70
2022-11-16T03:53:57.598Z,105.97
2022-11-16T03:56:24.746Z,118.85
2022-11-16T03:58:51.944Z,119.72
2022-11-16T04:01:19.237Z,109.30
2022-11-16T04:03:47.630Z,114.22
2022-11-16T04:06:33.901Z,103.90
2022-11-16T04:09:30.122Z,115.78
2022-11-16T04:12:15.648Z,120.45
2022-11-16T04:15:01.795Z,119.10
2022-11-16T04:17:49.448Z,128.57
2022-11-16T04:20:35.397Z,122.90
2022-11-16T04:23:27.161Z,122.63
2022-11-16T04:25:54.719Z,131.98
2022-11-16T04:28:28.568Z,129.43
2022-11-16T04:31:21.038Z,138.20
2022-11-16T04:34:21.312Z,139.43
2022-11-16T04:37:11.095Z,156.52
2022-11-16T04:39:42.385Z,143.65
2022-11-16T04:42:19.275Z,139.05
2022-11-16T04:45:07.576Z,145.75
2022-11-16T04:47:44.987Z,138.32
2022-11-16T04:50:12.891Z,148.65
2022-11-16T04:52:45.997Z,143.20
2022-11-16T04:55:15.154Z,143.13
2022-11-16T04:57:43.332Z,156.35
2022-11-16T05:00:12.739Z,129.50
2022-11-16T05:02:40.308Z,138.18
2022-11-16T05:05:07.818Z,158.85
2022-11-16T05:07:36.641Z,141.43
2022-11-16T05:10:11.389Z,151.48
2022-11-16T05:12:39.179Z,148.02
2022-11-16T05:15:09.345Z,150.95
2022-11-16T05:17:36.466Z,138.93
2022-11-16T05:20:26.729Z,173.00
2022-11-16T05:22:59.819Z,147.95
2022-11-16T05:25:35.394Z,137.55
2022-11-16T05:28:06.226Z,136.70
2022-11-16T05:30:37.225Z,112.43
2022-11-16T05:33:04.755Z,122.10
2022-11-16T05:35:35.411Z,129.63
2022-11-16T05:38:02.681Z,114.10
2022-11-16T05:40:33.518Z,118.85
2022-11-16T05:43:01.360Z,154.88
2022-11-16T05:45:32.051Z,127.45
2022-11-16T05:48:01.438Z,151.07
2022-11-16T05:50:28.759Z,124.78
2022-11-16T05:53:09.430Z,138.70
2022-11-16T05:55:36.896Z,126.95
2022-11-16T05:58:04.496Z,135.38
2022-11-16T06:00:31.767Z,150.75
2022-11-16T06:02:59.803Z,144.73
2022-11-16T06:05:32.475Z,143.43
2022-11-16T06:08:01.773Z,138.13
2022-11-16T06:10:30.915Z,135.32
2022-11-16T06:12:58.277Z,130.70
2022-11-16T06:15:25.474Z,123.30
2022-11-16T06:17:52.694Z,155.10
2022-11-16T06:20:20.872Z,155.90
2022-11-16T06:22:47.884Z,143.55
2022-11-16T06:25:15.114Z,166.40
2022-11-16T06:27:44.255Z,145.80
2022-11-16T06:30:17.314Z,141.05
2022-11-16T06:32:45.234Z,140.98
2022-11-16T06:35:12.605Z,131.70
2022-11-16T06:37:40.377Z,134.85
2022-11-16T06:40:09.367Z,133.07
2022-11-16T06:42:40.219Z,126.20
2022-11-16T06:45:11.131Z,147.98
2022-11-16T06:47:42.310Z,149.45
2022-11-16T06:50:10.323Z,139.73
2022-11-16T06:52:38.547Z,185.15
2022-11-16T06:55:06.561Z,154.93
2022-11-16T06:57:36.583Z,174.13
2022-11-16T07:00:06.306Z,165.45
2022-11-16T07:02:39.758Z,158.50
2022-11-16T07:05:10.253Z,158.65
2022-11-16T07:07:39.193Z,167.30
2022-11-16T07:10:06.849Z,175.00
2022-11-16T07:12:34.144Z,173.20
2022-11-16T07:15:02.288Z,194.57
2022-11-16T07:17:33.635Z,186.18
2022-11-16T07:20:00.802Z,153.10
2022-11-16T07:22:29.155Z,181.77
2022-11-16T07:24:56.157Z,164.75
2022-11-16T07:27:23.480Z,139.77
2022-11-16T07:29:52.076Z,98.15
2022-11-16T07:32:31.610Z,121.95
2022-11-16T07:35:10.269Z,123.05
2022-11-16T07:37:38.586Z,104.57
2022-11-16T07:40:08.769Z,151.50
2022-11-16T07:42:37.506Z,156.25
2022-11-16T07:45:12.360Z,137.95
2022-11-16T07:47:46.097Z,143.05
2022-11-16T07:50:21.894Z,158.85
2022-11-16T07:52:51.334Z,147.93
2022-11-16T07:55:24.650Z,141.45
2022-11-16T07:57:53.747Z,124.77
2022-11-16T08:00:22.025Z,153.43
2022-11-16T08:02:59.246Z,146.65
2022-11-16T08:05:26.768Z,156.02
2022-11-16T08:07:54.727Z,160.50
2022-11-16T08:10:24.956Z,127.70
2022-11-16T08:12:52.159Z,131.48
2022-11-16T08:15:20.563Z,141.80
2022-11-16T08:17:48.290Z,149.68
2022-11-16T08:20:17.294Z,163.23
2022-11-16T08:22:45.411Z,160.18
2022-11-16T08:25:12.826Z,169.15
2022-11-16T08:27:43.068Z,144.48
2022-11-16T08:30:12.209Z,156.52
2022-11-16T08:32:39.661Z,156.23
2022-11-16T08:35:06.985Z,143.25
2022-11-16T08:37:34.883Z,127.40
2022-11-16T08:40:03.890Z,154.50
2022-11-16T08:42:40.748Z,150.90
2022-11-16T08:45:10.683Z,141.50
2022-11-16T08:47:38.172Z,107.22
2022-11-16T08:50:07.631Z,123.15
2022-11-16T08:52:36.167Z,125.00
2022-11-16T08:55:05.580Z,134.02
2022-11-16T08:57:33.280Z,111.30
2022-11-16T09:00:05.348Z,133.48
2022-11-16T09:02:32.487Z,96.53
2022-11-16T09:04:59.729Z,82.70
2022-11-16T09:07:31.078Z,61.72
2022-11-16T09:09:58.256Z,89.68
2022-11-16T09:15:10.536Z,90.22
2022-11-16T09:17:37.689Z,107.50
2022-11-16T09:20:05.514Z,108.53
2022-11-16T09:22:32.647Z,102.20
2022-11-16T09:25:00.102Z,100.05
2022-11-16T09:27:27.745Z,94.70
2022-11-16T09:29:57.308Z,99.60
2022-11-16T09:32:24.288Z,96.63
2022-11-16T09:34:51.340Z,101.68
2022-11-16T09:37:18.694Z,123.15
2022-11-16T09:39:45.839Z,88.45
2022-11-16T09:42:52.872Z,90.80
2022-11-16T09:45:39.430Z,93.22
2022-11-16T09:48:12.745Z,90.60
2022-11-16T09:54:06.773Z,81.30
2022-11-16T09:56:38.077Z,103.35
2022-11-16T10:02:10.452Z,96.55
2022-11-16T10:04:58.889Z,91.82
2022-11-16T10:07:41.955Z,78.07
2022-11-16T10:10:30.688Z,81.00
2022-11-16T10:13:11.262Z,91.28
2022-11-16T10:15:55.306Z,123.07
2022-11-16T10:18:45.917Z,83.63
2022-11-16T10:21:28.769Z,86.37
2022-11-16T10:24:45.965Z,90.57
2022-11-16T10:27:51.710Z,88.60
2022-11-16T10:30:20.897Z,80.82
2022-11-16T10:32:59.366Z,93.63
2022-11-16T10:35:59.240Z,93.47
2022-11-16T10:38:30.631Z,100.55
2022-11-16T10:41:16.450Z,92.13
2022-11-16T10:43:45.607Z,83.55
2022-11-16T10:46:37.451Z,89.25
2022-11-16T10:49:56.427Z,100.45
2022-11-16T10:52:23.928Z,85.50
2022-11-16T10:54:51.705Z,89.13
2022-11-16T10:57:19.644Z,96.65
2022-11-16T10:59:56.264Z,104.72
2022-11-16T11:02:32.813Z,111.15
2022-11-16T11:05:18.178Z,81.65
2022-11-16T11:07:54.057Z,86.80
2022-11-16T11:10:35.775Z,77.03
2022-11-16T11:13:35.187Z,76.40
2022-11-16T11:16:17.816Z,67.43
2022-11-16T11:18:44.884Z,78.15
2022-11-16T11:21:20.424Z,79.95
2022-11-16T11:23:52.902Z,72.90
2022-11-16T11:26:37.201Z,82.32
2022-11-16T11:29:30.761Z,61.25
2022-11-16T11:32:05.767Z,70.55
2022-11-16T11:34:40.223Z,77.07
2022-11-16T11:37:16.000Z,67.90
2022-11-16T11:39:46.424Z,104.13
2022-11-16T11:42:23.035Z,69.35
2022-11-16T11:45:06.133Z,75.70
2022-11-16T11:48:00.575Z,72.82
2022-11-16T11:50:53.828Z,78.18
2022-11-16T11:54:00.617Z,62.25
2022-11-16T11:56:30.929Z,75.53
2022-11-16T11:58:58.846Z,87.07
2022-11-16T12:01:55.506Z,72.82
2022-11-16T12:05:08.410Z,69.65
2022-11-16T12:08:07.619Z,69.47
2022-11-16T12:10:58.117Z,68.07
2022-11-16T12:24:04.238Z,65.20
2022-11-16T12:30:10.662Z,61.55
2022-11-16T12:33:09.215Z,68.20
2022-11-16T12:36:01.350Z,49.55
2022-11-16T12:38:51.238Z,60.72
2022-11-16T12:42:09.086Z,54.92
2022-11-16T12:45:09.408Z,51.63
2022-11-16T13:20:45.382Z,65.15
2022-11-16T13:23:55.935Z,64.40
2022-11-16T13:26:36.360Z,64.75
2022-11-16T13:29:44.713Z,59.87
2022-11-16T13:32:20.791Z,56.28
2022-11-16T13:34:48.984Z,62.33
2022-11-16T13:37:44.379Z,57.50
2022-11-16T13:40:22.113Z,65.70
2022-11-16T13:43:17.759Z,54.60
2022-11-16T13:45:59.343Z,59.55
2022-11-16T13:48:36.482Z,62.50
2022-11-16T13:51:17.284Z,60.70
2022-11-16T13:56:51.747Z,58.15
2022-11-16T14:02:49.304Z,70.55
2022-11-16T14:05:40.245Z,54.38
2022-11-16T14:08:49.803Z,51.03
2022-11-16T14:11:42.529Z,78.53
2022-11-16T14:14:48.358Z,69.60
2022-11-16T14:17:53.831Z,56.97
2022-11-16T14:20:55.509Z,59.95
2022-11-16T14:23:46.786Z,62.75
2022-11-16T14:26:27.218Z,47.83
2022-11-16T14:29:47.215Z,51.63
2022-11-16T14:32:23.905Z,82.15
2022-11-16T14:34:53.611Z,61.20
2022-11-16T14:37:42.520Z,67.75
2022-11-16T14:40:20.169Z,64.57
2022-11-16T14:45:40.527Z,78.72
2022-11-16T14:48:17.373Z,67.38
2022-11-16T14:51:10.649Z,63.65
2022-11-16T14:53:45.822Z,63.35
2022-11-16T14:56:15.710Z,57.72
2022-11-16T14:59:00.394Z,51.78
2022-11-16T15:01:45.705Z,51.38
2022-11-16T15:04:18.162Z,75.82
2022-11-16T15:07:02.610Z,58.55
2022-11-16T15:09:34.082Z,57.88
2022-11-16T15:12:22.753Z,62.03
2022-11-16T15:14:54.985Z,57.90
2022-11-16T15:17:27.201Z,59.97
2022-11-16T15:19:59.579Z,51.80
2022-11-16T15:22:30.781Z,65.25
2022-11-16T15:27:41.550Z,71.70
2022-11-16T15:30:18.608Z,64.28
2022-11-16T15:32:48.834Z,66.50
2022-11-16T15:35:25.253Z,63.17
2022-11-16T15:38:18.953Z,58.60
2022-11-16T15:41:03.843Z,62.55
2022-11-16T15:43:45.419Z,51.35
2022-11-16T15:46:25.157Z,59.78
2022-11-16T15:48:53.415Z,57.13
2022-11-16T15:51:24.889Z,57.10
2022-11-16T15:53:54.365Z,59.28
2022-11-16T15:56:33.469Z,50.80
2022-11-16T15:59:11.770Z,55.70
2022-11-16T16:01:46.011Z,45.83
2022-11-16T16:04:17.754Z,60.72
2022-11-16T16:06:59.658Z,59.80
2022-11-16T16:09:35.782Z,52.33
2022-11-16T16:12:47.107Z,58.10
2022-11-16T16:15:40.624Z,54.15
2022-11-16T16:18:39.574Z,60.85
2022-11-16T16:21:06.851Z,56.42
2022-11-16T16:23:34.056Z,68.07
2022-11-16T16:26:15.871Z,60.15
2022-11-16T16:28:45.434Z,71.43
2022-11-16T16:31:13.326Z,112.60
2022-11-16T16:33:43.422Z,134.25
2022-11-16T16:36:14.109Z,142.57
2022-11-16T16:38:41.534Z,128.02
2022-11-16T16:41:22.677Z,139.23
2022-11-16T16:43:51.110Z,141.45
2022-11-16T16:46:18.372Z,139.52
2022-11-16T16:48:45.402Z,164.75
2022-11-16T16:51:13.200Z,147.45
2022-11-16T16:53:40.277Z,127.95
2022-11-16T16:56:14.966Z,115.40
2022-11-16T16:58:42.197Z,93.97
2022-11-16T17:01:11.098Z,77.30
2022-11-16T17:03:38.203Z,74.57
2022-11-16T17:06:05.599Z,72.32
2022-11-16T17:08:36.590Z,59.63
2022-11-16T17:11:04.815Z,66.68
2022-11-16T17:13:32.047Z,61.47
2022-11-16T17:16:01.768Z,71.53
2022-11-16T17:18:28.784Z,73.32
2022-11-16T17:20:55.859Z,69.47
2022-11-16T17:23:23.014Z,73.38
2022-11-16T17:25:50.060Z,82.68
2022-11-16T17:28:17.209Z,80.70
2022-11-16T17:30:44.350Z,73.75
2022-11-16T17:33:11.355Z,74.28
2022-11-16T17:35:38.421Z,76.35
2022-11-16T17:38:05.427Z,73.15
2022-11-16T17:40:32.490Z,80.10
2022-11-16T17:42:59.585Z,70.78
2022-11-16T17:45:27.714Z,69.85
2022-11-16T17:47:54.989Z,63.78
2022-11-16T17:50:22.051Z,68.63
2022-11-16T17:52:49.054Z,67.32
2022-11-16T17:55:16.154Z,67.65
2022-11-16T17:57:43.255Z,68.00
2022-11-16T18:00:11.419Z,66.05
2022-11-16T18:02:38.470Z,61.95
2022-11-16T18:05:05.999Z,75.25
2022-11-16T18:07:33.781Z,79.57
2022-11-16T18:10:00.859Z,60.88
2022-11-16T18:12:27.938Z,65.32
2022-11-16T18:15:26.581Z,68.82
2022-11-16T18:17:42.142Z,62.35
2022-11-16T18:20:10.147Z,70.07
2022-11-16T18:22:37.204Z,69.50
2022-11-16T18:25:04.731Z,70.45
2022-11-16T18:27:31.666Z,63.67
2022-11-16T18:29:58.677Z,56.05
2022-11-16T18:32:25.651Z,75.40
2022-11-16T18:34:53.394Z,62.10
2022-11-16T18:37:20.575Z,68.53
2022-11-16T18:39:47.658Z,60.20
2022-11-16T18:42:14.712Z,94.95
2022-11-16T18:44:41.836Z,87.10
2022-11-16T18:47:08.937Z,89.53
2022-11-16T18:49:36.006Z,103.43
2022-11-16T18:52:03.356Z,88.47
2022-11-16T18:54:30.488Z,91.57
2022-11-16T18:56:57.447Z,90.00
2022-11-16T18:59:25.995Z,69.00
2022-11-16T19:01:53.127Z,64.88
2022-11-16T19:04:20.118Z,67.15
2022-11-16T19:06:47.327Z,70.97
2022-11-16T19:09:14.399Z,66.90
2022-11-16T19:11:41.724Z,75.95
2022-11-16T19:14:08.770Z,60.45
2022-11-16T19:16:36.141Z,65.47
2022-11-16T19:19:03.552Z,76.63
2022-11-16T19:21:31.280Z,70.32
2022-11-16T19:23:58.667Z,72.93
2022-11-16T19:26:27.603Z,71.57
2022-11-16T19:28:54.949Z,76.00
2022-11-16T19:31:24.677Z,79.38
2022-11-16T19:34:05.843Z,85.97
2022-11-16T19:36:34.637Z,84.78
2022-11-16T19:39:01.908Z,77.75
2022-11-16T19:41:29.296Z,88.50
2022-11-16T19:44:00.055Z,81.90
2022-11-16T19:46:29.012Z,79.55
2022-11-16T19:48:56.957Z,93.85
2022-11-16T19:51:33.940Z,74.63
2022-11-16T19:54:02.177Z,73.72
2022-11-16T19:56:29.927Z,78.20
2022-11-16T19:58:57.193Z,80.65
2022-11-16T20:01:28.187Z,73.28
2022-11-16T20:03:57.454Z,74.38
2022-11-16T20:06:28.598Z,72.68
2022-11-16T20:08:59.500Z,64.28
2022-11-16T20:11:36.608Z,73.97
2022-11-16T20:14:06.074Z,66.85
2022-11-16T20:16:39.058Z,69.38
2022-11-16T20:19:08.405Z,65.43
2022-11-16T20:21:43.180Z,68.15
2022-11-16T20:24:13.153Z,62.13
2022-11-16T20:26:58.492Z,75.55
2022-11-16T20:29:25.593Z,74.47
2022-11-16T20:31:52.639Z,76.63
2022-11-16T20:34:21.047Z,66.72
2022-11-16T20:36:50.885Z,71.70
2022-11-16T20:39:20.073Z,69.70
2022-11-16T20:41:48.427Z,67.63
2022-11-16T20:44:22.548Z,70.32
2022-11-16T20:46:52.321Z,76.97
2022-11-16T20:49:19.636Z,70.80
2022-11-16T20:51:47.907Z,66.30
2022-11-16T20:54:15.515Z,78.88
2022-11-16T20:56:42.654Z,79.88
2022-11-16T20:59:09.671Z,82.47
2022-11-16T21:01:37.756Z,72.32
2022-11-16T21:04:06.341Z,76.07
2022-11-16T21:06:34.000Z,73.30
2022-11-16T21:09:01.467Z,70.85
2022-11-16T21:11:30.949Z,87.40
2022-11-16T21:14:16.223Z,73.53
2022-11-16T21:16:43.788Z,82.53
2022-11-16T21:19:11.821Z,78.22
2022-11-16T21:21:40.616Z,84.25
2022-11-16T21:24:10.957Z,70.78
2022-11-16T21:26:38.655Z,73.57
2022-11-16T21:29:06.220Z,74.57
2022-11-16T21:31:36.350Z,88.35
2022-11-16T21:34:03.899Z,77.47
2022-11-16T21:36:32.299Z,73.28
2022-11-16T21:38:59.754Z,74.13
2022-11-16T21:41:27.499Z,68.00
2022-11-16T21:43:54.624Z,64.40
2022-11-16T21:46:25.016Z,68.57
2022-11-16T21:48:54.040Z,65.20
2022-11-16T21:51:27.607Z,67.78
2022-11-16T21:53:55.684Z,66.70
2022-11-16T21:56:24.832Z,58.63
2022-11-16T21:58:53.449Z,61.72
2022-11-16T22:01:21.482Z,60.17
2022-11-16T22:04:08.856Z,61.83
2022-11-16T22:06:54.584Z,59.33
2022-11-16T22:09:22.003Z,55.58
2022-11-16T22:11:49.151Z,53.65
2022-11-16T22:14:16.393Z,55.05
2022-11-16T22:16:43.421Z,58.28
2022-11-16T22:19:10.678Z,63.40
2022-11-16T22:21:37.714Z,58.60
2022-11-16T22:24:05.010Z,58.40
2022-11-16T22:26:32.114Z,58.83
2022-11-16T22:28:59.453Z,49.42
2022-11-16T22:31:26.633Z,47.30
2022-11-16T22:33:56.461Z,50.58
2022-11-16T22:36:23.456Z,54.38
2022-11-16T22:38:50.562Z,52.70
2022-11-16T22:41:17.582Z,49.90
2022-11-16T22:43:44.517Z,51.63
2022-11-16T22:46:11.635Z,47.53
2022-11-16T22:48:40.137Z,48.13
2022-11-16T22:51:21.639Z,45.60
2022-11-16T22:53:53.270Z,47.00
2022-11-16T22:56:20.398Z,50.10
2022-11-16T22:58:47.499Z,50.47
2022-11-16T23:01:18.019Z,50.13
2022-11-16T23:03:45.351Z,55.53
2022-11-16T23:06:17.864Z,57.92
2022-11-16T23:08:44.896Z,53.47
2022-11-16T23:11:38.182Z,55.40
2022-11-16T23:14:25.076Z,54.45
2022-11-16T23:16:52.735Z,51.67
2022-11-16T23:19:39.302Z,59.25
2022-11-16T23:22:26.403Z,51.42
2022-11-16T23:25:12.250Z,49.15
2022-11-16T23:28:03.425Z,38.40
2022-11-16T23:30:30.516Z,40.88
2022-11-16T23:32:57.771Z,40.70
2022-11-16T23:35:24.828Z,51.08
2022-11-16T23:38:00.299Z,38.15
2022-11-16T23:40:45.445Z,33.70
2022-11-16T23:43:31.146Z,36.10
2022-11-16T23:45:58.411Z,49.25
2022-11-16T23:48:25.544Z,38.88
2022-11-16T23:50:52.587Z,36.10
2022-11-16T23:53:19.699Z,34.88
2022-11-16T23:55:47.961Z,32.35
2022-11-16T23:58:15.667Z,37.22
